sensor_id;sensor_type;location;lat;lon;timestamp;temperature;humidity
65692;DHT22;52411;52.716;6.696;2023-04-06T00:00:58;3.10;99.90
65692;DHT22;52411;52.716;6.696;2023-04-06T00:03:24;3.10;99.90
65692;DHT22;52411;52.716;6.696;2023-04-06T00:05:50;3.00;99.90
65692;DHT22;52411;52.716;6.696;2023-04-06T00:08:18;3.00;99.90
65692;DHT22;52411;52.716;6.696;2023-04-06T00:10:43;3.00;99.90
65692;DHT22;52411;52.716;6.696;2023-04-06T00:13:09;2.90;99.90
65692;DHT22;52411;52.716;6.696;2023-04-06T00:15:34;2.90;99.90
65692;DHT22;52411;52.716;6.696;2023-04-06T00:18:00;2.80;99.90
65692;DHT22;52411;52.716;6.696;2023-04-06T00:20:26;2.70;99.90
65692;DHT22;52411;52.716;6.696;2023-04-06T00:22:51;2.70;99.90
65692;DHT22;52411;52.716;6.696;2023-04-06T00:25:17;2.70;99.90
65692;DHT22;52411;52.716;6.696;2023-04-06T00:27:42;2.70;99.90
65692;DHT22;52411;52.716;6.696;2023-04-06T00:30:08;2.70;99.90
65692;DHT22;52411;52.716;6.696;2023-04-06T00:32:35;2.70;99.90
65692;DHT22;52411;52.716;6.696;2023-04-06T00:35:04;2.70;99.90
65692;DHT22;52411;52.716;6.696;2023-04-06T00:37:30;2.60;99.90
65692;DHT22;52411;52.716;6.696;2023-04-06T00:39:56;2.60;99.90
65692;DHT22;52411;52.716;6.696;2023-04-06T00:42:22;2.50;99.90
65692;DHT22;52411;52.716;6.696;2023-04-06T00:44:58;2.50;99.90
65692;DHT22;52411;52.716;6.696;2023-04-06T00:47:24;2.40;99.90
65692;DHT22;52411;52.716;6.696;2023-04-06T00:49:51;2.40;99.90
65692;DHT22;52411;52.716;6.696;2023-04-06T00:52:17;2.40;99.90
65692;DHT22;52411;52.716;6.696;2023-04-06T00:54:43;2.30;99.90
65692;DHT22;52411;52.716;6.696;2023-04-06T00:57:10;2.20;99.90
65692;DHT22;52411;52.716;6.696;2023-04-06T00:59:36;2.20;99.90
65692;DHT22;52411;52.716;6.696;2023-04-06T01:02:02;2.10;99.90
65692;DHT22;52411;52.716;6.696;2023-04-06T01:04:27;2.00;99.90
65692;DHT22;52411;52.716;6.696;2023-04-06T01:06:53;2.00;99.90
65692;DHT22;52411;52.716;6.696;2023-04-06T01:09:18;2.00;99.90
65692;DHT22;52411;52.716;6.696;2023-04-06T01:11:44;2.00;99.90
65692;DHT22;52411;52.716;6.696;2023-04-06T01:14:10;2.00;99.90
65692;DHT22;52411;52.716;6.696;2023-04-06T01:16:36;2.00;99.90
65692;DHT22;52411;52.716;6.696;2023-04-06T01:19:10;2.00;99.90
65692;DHT22;52411;52.716;6.696;2023-04-06T01:21:36;2.00;99.90
65692;DHT22;52411;52.716;6.696;2023-04-06T01:24:02;2.10;99.90
65692;DHT22;52411;52.716;6.696;2023-04-06T01:26:28;2.20;99.90
65692;DHT22;52411;52.716;6.696;2023-04-06T01:28:55;2.20;99.90
65692;DHT22;52411;52.716;6.696;2023-04-06T01:31:21;2.30;99.90
65692;DHT22;52411;52.716;6.696;2023-04-06T01:33:47;2.40;99.90
65692;DHT22;52411;52.716;6.696;2023-04-06T01:36:12;2.40;99.90
65692;DHT22;52411;52.716;6.696;2023-04-06T01:38:38;2.50;99.90
65692;DHT22;52411;52.716;6.696;2023-04-06T01:41:03;2.50;99.90
65692;DHT22;52411;52.716;6.696;2023-04-06T01:43:29;2.40;99.90
65692;DHT22;52411;52.716;6.696;2023-04-06T01:45:55;2.50;99.90
65692;DHT22;52411;52.716;6.696;2023-04-06T01:48:20;2.40;99.90
65692;DHT22;52411;52.716;6.696;2023-04-06T01:50:46;2.40;99.90
65692;DHT22;52411;52.716;6.696;2023-04-06T01:53:11;2.40;99.90
65692;DHT22;52411;52.716;6.696;2023-04-06T01:55:37;2.40;99.90
65692;DHT22;52411;52.716;6.696;2023-04-06T01:58:03;2.30;99.90
65692;DHT22;52411;52.716;6.696;2023-04-06T02:00:28;2.20;99.90
65692;DHT22;52411;52.716;6.696;2023-04-06T02:02:54;2.20;99.90
65692;DHT22;52411;52.716;6.696;2023-04-06T02:05:19;2.20;99.90
65692;DHT22;52411;52.716;6.696;2023-04-06T02:07:45;2.10;99.90
65692;DHT22;52411;52.716;6.696;2023-04-06T02:10:12;2.10;99.90
65692;DHT22;52411;52.716;6.696;2023-04-06T02:12:38;2.10;99.90
65692;DHT22;52411;52.716;6.696;2023-04-06T02:15:04;2.10;99.90
65692;DHT22;52411;52.716;6.696;2023-04-06T02:17:30;2.00;99.90
65692;DHT22;52411;52.716;6.696;2023-04-06T02:19:55;2.00;99.90
65692;DHT22;52411;52.716;6.696;2023-04-06T02:22:21;2.00;99.90
65692;DHT22;52411;52.716;6.696;2023-04-06T02:24:46;2.00;99.90
65692;DHT22;52411;52.716;6.696;2023-04-06T02:27:14;2.00;99.90
65692;DHT22;52411;52.716;6.696;2023-04-06T02:29:39;2.00;99.90
65692;DHT22;52411;52.716;6.696;2023-04-06T02:32:05;2.00;99.90
65692;DHT22;52411;52.716;6.696;2023-04-06T02:34:30;2.00;99.90
65692;DHT22;52411;52.716;6.696;2023-04-06T02:36:56;2.00;99.90
65692;DHT22;52411;52.716;6.696;2023-04-06T02:39:22;2.00;99.90
65692;DHT22;52411;52.716;6.696;2023-04-06T02:41:48;2.00;99.90
65692;DHT22;52411;52.716;6.696;2023-04-06T02:44:13;1.90;99.90
65692;DHT22;52411;52.716;6.696;2023-04-06T02:46:39;1.90;99.90
65692;DHT22;52411;52.716;6.696;2023-04-06T02:49:05;1.70;99.90
65692;DHT22;52411;52.716;6.696;2023-04-06T02:51:30;1.40;99.90
65692;DHT22;52411;52.716;6.696;2023-04-06T02:53:56;1.20;99.90
65692;DHT22;52411;52.716;6.696;2023-04-06T02:56:22;1.10;99.90
65692;DHT22;52411;52.716;6.696;2023-04-06T02:58:47;1.00;99.90
65692;DHT22;52411;52.716;6.696;2023-04-06T03:01:13;1.00;99.90
65692;DHT22;52411;52.716;6.696;2023-04-06T03:03:38;1.00;99.90
65692;DHT22;52411;52.716;6.696;2023-04-06T03:06:04;1.00;99.90
65692;DHT22;52411;52.716;6.696;2023-04-06T03:08:30;1.00;99.90
65692;DHT22;52411;52.716;6.696;2023-04-06T03:10:55;1.00;99.90
65692;DHT22;52411;52.716;6.696;2023-04-06T03:13:21;1.00;99.90
65692;DHT22;52411;52.716;6.696;2023-04-06T03:15:46;1.00;99.90
65692;DHT22;52411;52.716;6.696;2023-04-06T03:18:12;1.00;99.90
65692;DHT22;52411;52.716;6.696;2023-04-06T03:20:37;1.00;99.90
65692;DHT22;52411;52.716;6.696;2023-04-06T03:23:03;1.00;99.90
65692;DHT22;52411;52.716;6.696;2023-04-06T03:25:29;0.90;99.90
65692;DHT22;52411;52.716;6.696;2023-04-06T03:27:55;1.00;99.90
65692;DHT22;52411;52.716;6.696;2023-04-06T03:30:21;0.90;99.90
65692;DHT22;52411;52.716;6.696;2023-04-06T03:32:46;0.90;99.90
65692;DHT22;52411;52.716;6.696;2023-04-06T03:35:12;0.90;99.90
65692;DHT22;52411;52.716;6.696;2023-04-06T03:37:38;0.70;99.90
65692;DHT22;52411;52.716;6.696;2023-04-06T03:40:04;0.70;99.90
65692;DHT22;52411;52.716;6.696;2023-04-06T03:42:30;0.60;99.90
65692;DHT22;52411;52.716;6.696;2023-04-06T03:44:58;0.60;99.90
65692;DHT22;52411;52.716;6.696;2023-04-06T03:47:23;0.60;99.90
65692;DHT22;52411;52.716;6.696;2023-04-06T03:49:49;0.60;99.90
65692;DHT22;52411;52.716;6.696;2023-04-06T03:52:14;0.60;99.90
65692;DHT22;52411;52.716;6.696;2023-04-06T03:54:40;0.60;99.90
65692;DHT22;52411;52.716;6.696;2023-04-06T03:57:06;0.60;99.90
65692;DHT22;52411;52.716;6.696;2023-04-06T03:59:31;0.60;99.90
65692;DHT22;52411;52.716;6.696;2023-04-06T04:01:57;0.60;99.90
65692;DHT22;52411;52.716;6.696;2023-04-06T04:04:22;0.60;99.90
65692;DHT22;52411;52.716;6.696;2023-04-06T04:06:48;0.60;99.90
65692;DHT22;52411;52.716;6.696;2023-04-06T04:09:13;0.60;99.90
65692;DHT22;52411;52.716;6.696;2023-04-06T04:11:39;0.60;99.90
65692;DHT22;52411;52.716;6.696;2023-04-06T04:14:04;0.60;99.90
65692;DHT22;52411;52.716;6.696;2023-04-06T04:16:30;0.50;99.90
65692;DHT22;52411;52.716;6.696;2023-04-06T04:18:55;0.50;99.90
65692;DHT22;52411;52.716;6.696;2023-04-06T04:21:23;0.50;99.90
65692;DHT22;52411;52.716;6.696;2023-04-06T04:23:48;0.50;99.90
65692;DHT22;52411;52.716;6.696;2023-04-06T04:26:14;0.50;99.90
65692;DHT22;52411;52.716;6.696;2023-04-06T04:28:40;0.40;99.90
65692;DHT22;52411;52.716;6.696;2023-04-06T04:31:06;0.40;99.90
65692;DHT22;52411;52.716;6.696;2023-04-06T04:33:31;0.30;99.90
65692;DHT22;52411;52.716;6.696;2023-04-06T04:35:57;0.30;99.90
65692;DHT22;52411;52.716;6.696;2023-04-06T04:38:22;0.30;99.90
65692;DHT22;52411;52.716;6.696;2023-04-06T04:40:48;0.30;99.90
65692;DHT22;52411;52.716;6.696;2023-04-06T04:43:13;0.20;99.90
65692;DHT22;52411;52.716;6.696;2023-04-06T04:45:39;0.20;99.90
65692;DHT22;52411;52.716;6.696;2023-04-06T04:48:04;0.20;99.90
65692;DHT22;52411;52.716;6.696;2023-04-06T04:50:31;0.20;99.90
65692;DHT22;52411;52.716;6.696;2023-04-06T04:52:57;0.10;99.90
65692;DHT22;52411;52.716;6.696;2023-04-06T04:55:22;0.10;99.90
65692;DHT22;52411;52.716;6.696;2023-04-06T04:57:48;0.10;99.90
65692;DHT22;52411;52.716;6.696;2023-04-06T05:00:13;0.00;99.90
65692;DHT22;52411;52.716;6.696;2023-04-06T05:02:39;0.10;99.90
65692;DHT22;52411;52.716;6.696;2023-04-06T05:05:05;0.10;99.90
65692;DHT22;52411;52.716;6.696;2023-04-06T05:07:31;0.20;99.90
65692;DHT22;52411;52.716;6.696;2023-04-06T05:09:57;0.30;99.90
65692;DHT22;52411;52.716;6.696;2023-04-06T05:12:22;0.30;99.90
65692;DHT22;52411;52.716;6.696;2023-04-06T05:14:48;0.40;99.90
65692;DHT22;52411;52.716;6.696;2023-04-06T05:17:13;0.40;99.90
65692;DHT22;52411;52.716;6.696;2023-04-06T05:19:39;0.40;99.90
65692;DHT22;52411;52.716;6.696;2023-04-06T05:22:04;0.30;99.90
65692;DHT22;52411;52.716;6.696;2023-04-06T05:24:30;0.30;99.90
65692;DHT22;52411;52.716;6.696;2023-04-06T05:26:55;0.30;99.90
65692;DHT22;52411;52.716;6.696;2023-04-06T05:29:23;0.30;99.90
65692;DHT22;52411;52.716;6.696;2023-04-06T05:31:50;0.30;99.90
65692;DHT22;52411;52.716;6.696;2023-04-06T05:34:16;0.40;99.90
65692;DHT22;52411;52.716;6.696;2023-04-06T05:36:41;0.40;99.90
65692;DHT22;52411;52.716;6.696;2023-04-06T05:39:07;0.40;99.90
65692;DHT22;52411;52.716;6.696;2023-04-06T05:41:33;0.40;99.90
65692;DHT22;52411;52.716;6.696;2023-04-06T05:43:58;0.40;99.90
65692;DHT22;52411;52.716;6.696;2023-04-06T05:46:24;0.40;99.90
65692;DHT22;52411;52.716;6.696;2023-04-06T05:48:49;0.50;99.90
65692;DHT22;52411;52.716;6.696;2023-04-06T05:51:15;0.60;99.90
65692;DHT22;52411;52.716;6.696;2023-04-06T05:53:40;0.60;99.90
65692;DHT22;52411;52.716;6.696;2023-04-06T05:56:06;0.70;99.90
65692;DHT22;52411;52.716;6.696;2023-04-06T05:58:32;0.70;99.90
65692;DHT22;52411;52.716;6.696;2023-04-06T06:01:01;0.80;99.90
65692;DHT22;52411;52.716;6.696;2023-04-06T06:03:28;0.80;99.90
65692;DHT22;52411;52.716;6.696;2023-04-06T06:05:53;0.80;99.90
65692;DHT22;52411;52.716;6.696;2023-04-06T06:08:19;0.90;99.90
65692;DHT22;52411;52.716;6.696;2023-04-06T06:10:45;1.00;99.90
65692;DHT22;52411;52.716;6.696;2023-04-06T06:13:10;1.00;99.90
65692;DHT22;52411;52.716;6.696;2023-04-06T06:15:36;1.10;99.90
65692;DHT22;52411;52.716;6.696;2023-04-06T06:18:01;1.20;99.90
65692;DHT22;52411;52.716;6.696;2023-04-06T06:20:27;1.30;99.90
65692;DHT22;52411;52.716;6.696;2023-04-06T06:22:53;1.50;99.90
65692;DHT22;52411;52.716;6.696;2023-04-06T06:25:18;1.50;99.90
65692;DHT22;52411;52.716;6.696;2023-04-06T06:27:44;1.60;99.90
65692;DHT22;52411;52.716;6.696;2023-04-06T06:30:10;1.70;99.90
65692;DHT22;52411;52.716;6.696;2023-04-06T06:32:35;1.70;99.90
65692;DHT22;52411;52.716;6.696;2023-04-06T06:35:01;1.80;99.90
65692;DHT22;52411;52.716;6.696;2023-04-06T06:37:26;1.90;99.90
65692;DHT22;52411;52.716;6.696;2023-04-06T06:39:52;1.90;99.90
65692;DHT22;52411;52.716;6.696;2023-04-06T06:42:18;2.00;99.90
65692;DHT22;52411;52.716;6.696;2023-04-06T06:44:43;2.10;99.90
65692;DHT22;52411;52.716;6.696;2023-04-06T06:47:09;2.20;99.90
65692;DHT22;52411;52.716;6.696;2023-04-06T06:49:34;2.30;99.90
65692;DHT22;52411;52.716;6.696;2023-04-06T06:52:00;2.40;99.90
65692;DHT22;52411;52.716;6.696;2023-04-06T06:54:26;2.50;99.90
65692;DHT22;52411;52.716;6.696;2023-04-06T06:56:51;2.60;99.90
65692;DHT22;52411;52.716;6.696;2023-04-06T06:59:17;2.70;99.90
65692;DHT22;52411;52.716;6.696;2023-04-06T07:01:42;2.80;99.90
65692;DHT22;52411;52.716;6.696;2023-04-06T07:04:08;2.90;99.90
65692;DHT22;52411;52.716;6.696;2023-04-06T07:06:35;3.00;99.90
65692;DHT22;52411;52.716;6.696;2023-04-06T07:09:02;3.10;99.90
65692;DHT22;52411;52.716;6.696;2023-04-06T07:11:28;3.10;99.90
65692;DHT22;52411;52.716;6.696;2023-04-06T07:13:54;3.30;99.90
65692;DHT22;52411;52.716;6.696;2023-04-06T07:16:19;3.30;99.90
65692;DHT22;52411;52.716;6.696;2023-04-06T07:18:45;3.50;99.90
65692;DHT22;52411;52.716;6.696;2023-04-06T07:21:11;3.60;99.90
65692;DHT22;52411;52.716;6.696;2023-04-06T07:23:37;3.70;99.90
65692;DHT22;52411;52.716;6.696;2023-04-06T07:26:02;3.80;99.90
65692;DHT22;52411;52.716;6.696;2023-04-06T07:28:28;4.00;99.90
65692;DHT22;52411;52.716;6.696;2023-04-06T07:30:54;4.10;99.90
65692;DHT22;52411;52.716;6.696;2023-04-06T07:33:20;4.20;99.90
65692;DHT22;52411;52.716;6.696;2023-04-06T07:35:45;4.30;99.90
65692;DHT22;52411;52.716;6.696;2023-04-06T07:38:11;4.50;99.90
65692;DHT22;52411;52.716;6.696;2023-04-06T07:40:37;4.60;99.90
65692;DHT22;52411;52.716;6.696;2023-04-06T07:43:03;4.80;99.90
65692;DHT22;52411;52.716;6.696;2023-04-06T07:45:29;4.90;99.90
65692;DHT22;52411;52.716;6.696;2023-04-06T07:47:54;5.10;99.90
65692;DHT22;52411;52.716;6.696;2023-04-06T07:50:20;5.20;99.90
65692;DHT22;52411;52.716;6.696;2023-04-06T07:52:45;5.30;99.90
65692;DHT22;52411;52.716;6.696;2023-04-06T07:55:11;5.40;99.90
65692;DHT22;52411;52.716;6.696;2023-04-06T07:57:37;5.60;99.90
65692;DHT22;52411;52.716;6.696;2023-04-06T08:00:03;5.70;99.90
65692;DHT22;52411;52.716;6.696;2023-04-06T08:02:31;5.80;99.90
65692;DHT22;52411;52.716;6.696;2023-04-06T08:04:56;6.00;99.90
65692;DHT22;52411;52.716;6.696;2023-04-06T08:07:22;6.10;99.90
65692;DHT22;52411;52.716;6.696;2023-04-06T08:09:47;6.20;99.90
65692;DHT22;52411;52.716;6.696;2023-04-06T08:12:13;6.30;99.90
65692;DHT22;52411;52.716;6.696;2023-04-06T08:14:39;6.40;99.90
65692;DHT22;52411;52.716;6.696;2023-04-06T08:17:04;6.60;99.90
65692;DHT22;52411;52.716;6.696;2023-04-06T08:19:30;6.70;99.90
65692;DHT22;52411;52.716;6.696;2023-04-06T08:21:56;6.80;99.90
65692;DHT22;52411;52.716;6.696;2023-04-06T08:24:21;6.90;99.90
65692;DHT22;52411;52.716;6.696;2023-04-06T08:26:47;7.10;99.90
65692;DHT22;52411;52.716;6.696;2023-04-06T08:29:12;7.20;99.90
65692;DHT22;52411;52.716;6.696;2023-04-06T08:31:38;7.40;99.90
65692;DHT22;52411;52.716;6.696;2023-04-06T08:34:04;7.60;99.90
65692;DHT22;52411;52.716;6.696;2023-04-06T08:36:30;7.80;99.90
65692;DHT22;52411;52.716;6.696;2023-04-06T08:38:56;8.00;99.90
65692;DHT22;52411;52.716;6.696;2023-04-06T08:41:22;8.10;99.90
65692;DHT22;52411;52.716;6.696;2023-04-06T08:43:49;8.30;99.90
65692;DHT22;52411;52.716;6.696;2023-04-06T08:46:17;8.50;99.90
65692;DHT22;52411;52.716;6.696;2023-04-06T08:48:43;8.60;99.90
65692;DHT22;52411;52.716;6.696;2023-04-06T08:51:09;8.70;99.90
65692;DHT22;52411;52.716;6.696;2023-04-06T08:53:35;8.90;99.90
65692;DHT22;52411;52.716;6.696;2023-04-06T08:56:02;9.00;99.90
65692;DHT22;52411;52.716;6.696;2023-04-06T08:58:32;9.20;99.90
65692;DHT22;52411;52.716;6.696;2023-04-06T09:00:58;9.30;99.90
65692;DHT22;52411;52.716;6.696;2023-04-06T09:03:26;9.30;99.90
65692;DHT22;52411;52.716;6.696;2023-04-06T09:05:52;9.40;99.90
65692;DHT22;52411;52.716;6.696;2023-04-06T09:08:18;9.60;99.90
65692;DHT22;52411;52.716;6.696;2023-04-06T09:10:43;9.70;99.90
65692;DHT22;52411;52.716;6.696;2023-04-06T09:13:09;9.80;99.90
65692;DHT22;52411;52.716;6.696;2023-04-06T09:15:35;9.80;99.90
65692;DHT22;52411;52.716;6.696;2023-04-06T09:18:01;9.80;99.90
65692;DHT22;52411;52.716;6.696;2023-04-06T09:20:26;9.90;99.90
65692;DHT22;52411;52.716;6.696;2023-04-06T09:22:54;10.00;99.90
65692;DHT22;52411;52.716;6.696;2023-04-06T09:25:24;10.10;99.90
65692;DHT22;52411;52.716;6.696;2023-04-06T09:28:02;10.20;99.90
65692;DHT22;52411;52.716;6.696;2023-04-06T09:30:28;10.20;99.90
65692;DHT22;52411;52.716;6.696;2023-04-06T09:32:55;10.30;99.90
65692;DHT22;52411;52.716;6.696;2023-04-06T09:35:22;10.40;99.90
65692;DHT22;52411;52.716;6.696;2023-04-06T09:37:50;10.50;99.90
65692;DHT22;52411;52.716;6.696;2023-04-06T09:40:17;10.50;99.90
65692;DHT22;52411;52.716;6.696;2023-04-06T09:42:47;10.60;99.90
65692;DHT22;52411;52.716;6.696;2023-04-06T09:45:13;10.70;99.90
65692;DHT22;52411;52.716;6.696;2023-04-06T09:47:42;10.70;99.90
65692;DHT22;52411;52.716;6.696;2023-04-06T09:50:10;10.80;99.90
65692;DHT22;52411;52.716;6.696;2023-04-06T09:52:47;10.90;99.90
65692;DHT22;52411;52.716;6.696;2023-04-06T09:55:23;10.90;99.60
65692;DHT22;52411;52.716;6.696;2023-04-06T09:58:05;11.00;99.70
65692;DHT22;52411;52.716;6.696;2023-04-06T10:00:32;11.00;99.00
65692;DHT22;52411;52.716;6.696;2023-04-06T10:05:57;11.00;99.00
65692;DHT22;52411;52.716;6.696;2023-04-06T10:08:28;11.10;99.20
65692;DHT22;52411;52.716;6.696;2023-04-06T10:10:55;11.20;98.90
65692;DHT22;52411;52.716;6.696;2023-04-06T10:13:22;11.20;98.20
65692;DHT22;52411;52.716;6.696;2023-04-06T10:15:49;11.30;98.60
65692;DHT22;52411;52.716;6.696;2023-04-06T10:18:15;11.60;99.20
65692;DHT22;52411;52.716;6.696;2023-04-06T10:20:47;11.70;99.10
65692;DHT22;52411;52.716;6.696;2023-04-06T10:23:36;11.90;98.60
65692;DHT22;52411;52.716;6.696;2023-04-06T10:26:02;12.00;97.10
65692;DHT22;52411;52.716;6.696;2023-04-06T10:28:33;12.10;97.00
65692;DHT22;52411;52.716;6.696;2023-04-06T10:31:05;12.20;97.40
65692;DHT22;52411;52.716;6.696;2023-04-06T10:33:31;12.40;97.60
65692;DHT22;52411;52.716;6.696;2023-04-06T10:35:57;12.60;97.50
65692;DHT22;52411;52.716;6.696;2023-04-06T10:38:37;12.70;96.60
65692;DHT22;52411;52.716;6.696;2023-04-06T10:41:05;12.70;94.50
65692;DHT22;52411;52.716;6.696;2023-04-06T10:43:34;12.80;96.00
65692;DHT22;52411;52.716;6.696;2023-04-06T10:46:03;12.90;96.30
65692;DHT22;52411;52.716;6.696;2023-04-06T10:48:43;12.90;95.90
65692;DHT22;52411;52.716;6.696;2023-04-06T10:51:19;12.90;94.50
65692;DHT22;52411;52.716;6.696;2023-04-06T10:53:47;12.90;94.00
65692;DHT22;52411;52.716;6.696;2023-04-06T10:56:15;12.90;95.50
65692;DHT22;52411;52.716;6.696;2023-04-06T10:58:48;13.00;95.50
65692;DHT22;52411;52.716;6.696;2023-04-06T11:01:18;13.10;94.30
65692;DHT22;52411;52.716;6.696;2023-04-06T11:03:51;13.30;95.60
65692;DHT22;52411;52.716;6.696;2023-04-06T11:06:28;13.50;95.00
65692;DHT22;52411;52.716;6.696;2023-04-06T11:08:57;13.60;95.30
65692;DHT22;52411;52.716;6.696;2023-04-06T11:11:24;13.60;94.80
65692;DHT22;52411;52.716;6.696;2023-04-06T11:13:56;13.60;93.40
65692;DHT22;52411;52.716;6.696;2023-04-06T11:16:23;13.70;94.40
65692;DHT22;52411;52.716;6.696;2023-04-06T11:18:56;13.50;93.40
65692;DHT22;52411;52.716;6.696;2023-04-06T11:21:41;13.40;93.80
65692;DHT22;52411;52.716;6.696;2023-04-06T11:24:13;13.50;93.30
65692;DHT22;52411;52.716;6.696;2023-04-06T11:26:40;13.60;94.00
65692;DHT22;52411;52.716;6.696;2023-04-06T11:29:07;13.60;93.60
65692;DHT22;52411;52.716;6.696;2023-04-06T11:31:59;13.60;93.50
65692;DHT22;52411;52.716;6.696;2023-04-06T11:34:25;13.50;90.90
65692;DHT22;52411;52.716;6.696;2023-04-06T11:36:58;13.40;91.80
65692;DHT22;52411;52.716;6.696;2023-04-06T11:39:25;13.40;92.50
65692;DHT22;52411;52.716;6.696;2023-04-06T11:41:53;13.60;92.80
65692;DHT22;52411;52.716;6.696;2023-04-06T11:44:38;13.60;93.20
65692;DHT22;52411;52.716;6.696;2023-04-06T11:47:10;13.70;91.60
65692;DHT22;52411;52.716;6.696;2023-04-06T11:49:41;13.80;93.10
65692;DHT22;52411;52.716;6.696;2023-04-06T11:52:22;13.70;91.70
65692;DHT22;52411;52.716;6.696;2023-04-06T11:54:49;13.80;90.40
65692;DHT22;52411;52.716;6.696;2023-04-06T11:57:19;13.80;92.20
65692;DHT22;52411;52.716;6.696;2023-04-06T11:59:45;13.90;90.40
65692;DHT22;52411;52.716;6.696;2023-04-06T12:02:10;13.90;92.00
65692;DHT22;52411;52.716;6.696;2023-04-06T12:04:36;14.10;92.20
65692;DHT22;52411;52.716;6.696;2023-04-06T12:07:02;14.20;91.40
65692;DHT22;52411;52.716;6.696;2023-04-06T12:09:28;14.40;91.50
65692;DHT22;52411;52.716;6.696;2023-04-06T12:11:57;14.40;89.70
65692;DHT22;52411;52.716;6.696;2023-04-06T12:14:23;14.60;88.50
65692;DHT22;52411;52.716;6.696;2023-04-06T12:16:48;14.80;90.30
65692;DHT22;52411;52.716;6.696;2023-04-06T12:19:14;15.00;90.00
65692;DHT22;52411;52.716;6.696;2023-04-06T12:21:40;15.20;89.60
65692;DHT22;52411;52.716;6.696;2023-04-06T12:24:06;15.30;89.40
65692;DHT22;52411;52.716;6.696;2023-04-06T12:26:31;15.20;88.60
65692;DHT22;52411;52.716;6.696;2023-04-06T12:28:58;15.10;88.70
65692;DHT22;52411;52.716;6.696;2023-04-06T12:31:34;15.00;87.60
65692;DHT22;52411;52.716;6.696;2023-04-06T12:34:00;15.00;88.80
65692;DHT22;52411;52.716;6.696;2023-04-06T12:36:27;14.90;88.80
65692;DHT22;52411;52.716;6.696;2023-04-06T12:38:53;14.90;88.80
65692;DHT22;52411;52.716;6.696;2023-04-06T12:41:19;14.90;89.40
65692;DHT22;52411;52.716;6.696;2023-04-06T12:43:45;14.60;82.90
65692;DHT22;52411;52.716;6.696;2023-04-06T12:46:11;14.10;82.50
65692;DHT22;52411;52.716;6.696;2023-04-06T12:48:37;13.90;81.90
65692;DHT22;52411;52.716;6.696;2023-04-06T12:51:06;14.00;86.20
65692;DHT22;52411;52.716;6.696;2023-04-06T12:53:32;14.10;85.20
65692;DHT22;52411;52.716;6.696;2023-04-06T12:55:59;14.00;83.50
65692;DHT22;52411;52.716;6.696;2023-04-06T12:58:25;14.20;86.30
65692;DHT22;52411;52.716;6.696;2023-04-06T13:00:55;14.40;87.10
65692;DHT22;52411;52.716;6.696;2023-04-06T13:03:21;14.30;84.70
65692;DHT22;52411;52.716;6.696;2023-04-06T13:05:51;14.20;83.10
65692;DHT22;52411;52.716;6.696;2023-04-06T13:08:18;13.90;80.50
65692;DHT22;52411;52.716;6.696;2023-04-06T13:10:47;13.70;79.70
65692;DHT22;52411;52.716;6.696;2023-04-06T13:13:17;13.70;85.10
65692;DHT22;52411;52.716;6.696;2023-04-06T13:15:44;13.60;85.30
65692;DHT22;52411;52.716;6.696;2023-04-06T13:18:10;13.70;85.50
65692;DHT22;52411;52.716;6.696;2023-04-06T13:20:36;13.80;86.70
65692;DHT22;52411;52.716;6.696;2023-04-06T13:23:01;13.70;87.60
65692;DHT22;52411;52.716;6.696;2023-04-06T13:25:27;13.70;87.40
65692;DHT22;52411;52.716;6.696;2023-04-06T13:27:53;13.60;87.00
65692;DHT22;52411;52.716;6.696;2023-04-06T13:30:19;13.20;85.40
65692;DHT22;52411;52.716;6.696;2023-04-06T13:32:45;13.10;86.60
65692;DHT22;52411;52.716;6.696;2023-04-06T13:35:11;13.00;89.70
65692;DHT22;52411;52.716;6.696;2023-04-06T13:37:37;13.00;89.40
65692;DHT22;52411;52.716;6.696;2023-04-06T13:40:04;12.80;87.80
65692;DHT22;52411;52.716;6.696;2023-04-06T13:42:30;12.80;86.90
65692;DHT22;52411;52.716;6.696;2023-04-06T13:44:56;12.70;90.50
65692;DHT22;52411;52.716;6.696;2023-04-06T13:47:21;12.80;92.50
65692;DHT22;52411;52.716;6.696;2023-04-06T13:49:50;12.80;92.10
65692;DHT22;52411;52.716;6.696;2023-04-06T13:52:16;12.70;91.70
65692;DHT22;52411;52.716;6.696;2023-04-06T13:54:42;12.60;90.70
65692;DHT22;52411;52.716;6.696;2023-04-06T13:57:08;12.60;92.40
65692;DHT22;52411;52.716;6.696;2023-04-06T13:59:37;12.60;92.30
65692;DHT22;52411;52.716;6.696;2023-04-06T14:02:05;12.50;92.30
65692;DHT22;52411;52.716;6.696;2023-04-06T14:04:31;12.60;92.80
65692;DHT22;52411;52.716;6.696;2023-04-06T14:06:57;12.40;92.20
65692;DHT22;52411;52.716;6.696;2023-04-06T14:09:23;12.40;92.40
65692;DHT22;52411;52.716;6.696;2023-04-06T14:11:50;12.30;92.70
65692;DHT22;52411;52.716;6.696;2023-04-06T14:14:16;12.40;92.80
65692;DHT22;52411;52.716;6.696;2023-04-06T14:16:42;12.40;92.30
65692;DHT22;52411;52.716;6.696;2023-04-06T14:19:09;12.40;92.70
65692;DHT22;52411;52.716;6.696;2023-04-06T14:21:37;12.50;92.90
65692;DHT22;52411;52.716;6.696;2023-04-06T14:24:05;12.60;93.20
65692;DHT22;52411;52.716;6.696;2023-04-06T14:26:31;12.70;93.60
65692;DHT22;52411;52.716;6.696;2023-04-06T14:28:58;12.90;93.70
65692;DHT22;52411;52.716;6.696;2023-04-06T14:31:24;12.90;93.80
65692;DHT22;52411;52.716;6.696;2023-04-06T14:33:49;12.80;93.50
65692;DHT22;52411;52.716;6.696;2023-04-06T14:36:15;12.70;94.00
65692;DHT22;52411;52.716;6.696;2023-04-06T14:38:41;12.80;93.80
65692;DHT22;52411;52.716;6.696;2023-04-06T14:41:08;12.60;92.80
65692;DHT22;52411;52.716;6.696;2023-04-06T14:43:35;12.40;93.20
65692;DHT22;52411;52.716;6.696;2023-04-06T14:46:01;12.40;93.20
65692;DHT22;52411;52.716;6.696;2023-04-06T14:48:28;12.40;93.80
65692;DHT22;52411;52.716;6.696;2023-04-06T14:50:57;12.40;94.50
65692;DHT22;52411;52.716;6.696;2023-04-06T14:53:23;12.40;94.80
65692;DHT22;52411;52.716;6.696;2023-04-06T14:55:49;12.40;94.80
65692;DHT22;52411;52.716;6.696;2023-04-06T14:58:19;12.40;95.00
65692;DHT22;52411;52.716;6.696;2023-04-06T15:00:45;12.40;95.40
65692;DHT22;52411;52.716;6.696;2023-04-06T15:03:11;12.30;95.80
65692;DHT22;52411;52.716;6.696;2023-04-06T15:05:36;12.10;97.20
65692;DHT22;52411;52.716;6.696;2023-04-06T15:08:02;11.70;97.60
65692;DHT22;52411;52.716;6.696;2023-04-06T15:10:31;11.60;98.60
65692;DHT22;52411;52.716;6.696;2023-04-06T15:12:57;11.30;99.00
65692;DHT22;52411;52.716;6.696;2023-04-06T15:15:22;11.10;99.90
65692;DHT22;52411;52.716;6.696;2023-04-06T15:17:48;10.90;99.90
65692;DHT22;52411;52.716;6.696;2023-04-06T15:20:13;10.80;99.90
65692;DHT22;52411;52.716;6.696;2023-04-06T15:22:39;10.70;99.90
65692;DHT22;52411;52.716;6.696;2023-04-06T15:25:05;10.70;99.90
65692;DHT22;52411;52.716;6.696;2023-04-06T15:27:30;10.60;99.90
65692;DHT22;52411;52.716;6.696;2023-04-06T15:29:56;10.60;99.90
65692;DHT22;52411;52.716;6.696;2023-04-06T15:32:24;10.60;99.90
65692;DHT22;52411;52.716;6.696;2023-04-06T15:34:50;10.50;99.90
65692;DHT22;52411;52.716;6.696;2023-04-06T15:37:16;10.40;99.90
65692;DHT22;52411;52.716;6.696;2023-04-06T15:39:41;10.40;99.90